Time;durP1;ratioP1;P1;durP2;ratioP2;P2;SDS_P1;SDS_P2;PMS_P1;PMS_P2;Temp;Humidity;BMP_temperature;BMP_pressure;BME280_temperature;BME280_humidity;BME280_pressure;Samples;Min_cycle;Max_cycle;Signal;HPM_P1;HPM_P2
2023/07/24 00:00:24;;;;;;;5.65;4.07;;;27.10;40.60;;;;;;5147794;27;45412;-70
2023/07/24 00:02:53;;;;;;;6.60;3.78;;;27.10;40.60;;;;;;5147995;27;45356;-70
2023/07/24 00:05:20;;;;;;;4.57;3.92;;;27.10;40.60;;;;;;5148449;27;45294;-71
2023/07/24 00:07:48;;;;;;;4.82;3.55;;;27.10;40.70;;;;;;5151296;27;45323;-70
2023/07/24 00:10:15;;;;;;;4.97;3.78;;;27.10;40.70;;;;;;5151454;27;45287;-70
2023/07/24 00:12:42;;;;;;;5.32;3.83;;;27.00;40.70;;;;;;5151512;27;45449;-70
2023/07/24 00:15:09;;;;;;;6.10;3.75;;;27.00;40.70;;;;;;5150856;27;46690;-70
2023/07/24 00:17:36;;;;;;;5.95;3.97;;;27.00;40.70;;;;;;5150672;27;45451;-70
2023/07/24 00:20:03;;;;;;;5.57;3.97;;;27.00;40.70;;;;;;5150401;27;45348;-71
2023/07/24 00:22:30;;;;;;;4.38;3.67;;;27.00;40.80;;;;;;5151007;27;45403;-71
2023/07/24 00:24:58;;;;;;;4.85;3.60;;;27.00;40.80;;;;;;5150797;27;45318;-71
2023/07/24 00:27:25;;;;;;;5.75;4.05;;;27.00;40.80;;;;;;5148528;27;45348;-70
2023/07/24 00:29:51;;;;;;;5.38;3.78;;;26.90;40.70;;;;;;5151343;27;45381;-70
2023/07/24 00:32:18;;;;;;;5.50;3.78;;;26.90;40.80;;;;;;5151065;27;45434;-70
2023/07/24 00:34:45;;;;;;;5.47;4.20;;;26.90;40.80;;;;;;5150818;27;46518;-71
2023/07/24 00:37:12;;;;;;;4.60;3.55;;;26.90;40.90;;;;;;5150703;27;45345;-70
2023/07/24 00:39:39;;;;;;;6.43;4.20;;;26.90;40.90;;;;;;5151075;27;45413;-71
2023/07/24 00:42:07;;;;;;;5.60;3.70;;;26.90;41.00;;;;;;5150897;27;45521;-71
2023/07/24 00:44:34;;;;;;;6.80;4.22;;;26.80;40.90;;;;;;5150576;27;46362;-70
2023/07/24 00:47:01;;;;;;;6.15;3.80;;;26.80;40.90;;;;;;5150658;27;45273;-70
2023/07/24 00:49:28;;;;;;;6.80;4.15;;;26.80;40.90;;;;;;5150720;27;45248;-70
2023/07/24 00:51:55;;;;;;;5.03;3.58;;;26.80;41.50;;;;;;5150988;27;45414;-70
2023/07/24 00:54:22;;;;;;;5.57;4.05;;;26.80;40.90;;;;;;5149780;27;45457;-70
2023/07/24 00:56:48;;;;;;;5.78;4.13;;;26.80;41.00;;;;;;5150515;27;45300;-70
2023/07/24 00:59:17;;;;;;;6.05;4.03;;;26.80;41.00;;;;;;5150399;27;45382;-71
2023/07/24 01:01:43;;;;;;;5.65;3.80;;;26.70;41.00;;;;;;5150801;27;45244;-69
2023/07/24 01:04:10;;;;;;;7.72;3.92;;;26.70;41.00;;;;;;5149670;27;48273;-70
2023/07/24 01:06:37;;;;;;;5.82;3.72;;;26.70;41.00;;;;;;5150320;27;45370;-70
2023/07/24 01:09:04;;;;;;;6.07;4.00;;;26.70;41.00;;;;;;5150469;27;45361;-70
2023/07/24 01:11:34;;;;;;;5.20;4.10;;;26.70;41.00;;;;;;5150846;27;45371;-70
2023/07/24 01:14:03;;;;;;;6.05;4.10;;;26.70;41.00;;;;;;5149920;27;45563;-70
2023/07/24 01:16:34;;;;;;;4.55;3.75;;;26.70;41.10;;;;;;5149147;27;45282;-71
2023/07/24 01:19:00;;;;;;;6.82;3.50;;;26.60;41.00;;;;;;5150120;27;45275;-70
2023/07/24 01:21:32;;;;;;;5.88;3.92;;;26.60;41.00;;;;;;5150395;27;45320;-70
2023/07/24 01:24:04;;;;;;;5.35;3.88;;;26.60;41.00;;;;;;5149974;27;45531;-70
2023/07/24 01:26:32;;;;;;;3.72;3.00;;;26.60;41.00;;;;;;5149920;27;45335;-69
2023/07/24 01:28:59;;;;;;;6.22;3.95;;;26.60;41.10;;;;;;5150052;27;45299;-70
2023/07/24 01:31:26;;;;;;;5.30;4.00;;;26.60;41.10;;;;;;5150276;27;45257;-70
2023/07/24 01:33:52;;;;;;;5.18;3.65;;;26.50;41.00;;;;;;5149804;27;47400;-70
2023/07/24 01:36:19;;;;;;;4.90;3.80;;;26.60;41.10;;;;;;5149974;27;45339;-70
2023/07/24 01:38:46;;;;;;;5.85;4.18;;;26.60;41.20;;;;;;5149964;27;45425;-70
2023/07/24 01:41:13;;;;;;;5.07;3.97;;;26.50;41.10;;;;;;5150338;27;45370;-70
2023/07/24 01:43:41;;;;;;;7.22;3.90;;;26.50;41.20;;;;;;5149540;27;46390;-70
2023/07/24 01:46:08;;;;;;;7.30;3.83;;;26.50;41.10;;;;;;5149847;27;45363;-70
2023/07/24 01:48:35;;;;;;;5.82;4.30;;;26.50;41.20;;;;;;5149774;27;45369;-70
2023/07/24 01:51:02;;;;;;;5.93;3.90;;;26.50;41.20;;;;;;5150275;27;45426;-70
2023/07/24 01:53:29;;;;;;;5.85;4.22;;;26.50;41.20;;;;;;5148045;27;46406;-71
2023/07/24 01:55:56;;;;;;;4.90;3.50;;;26.50;41.30;;;;;;5149352;27;45386;-70
2023/07/24 01:58:23;;;;;;;4.47;3.67;;;26.50;41.30;;;;;;5149506;27;45357;-70
2023/07/24 02:00:51;;;;;;;7.15;4.35;;;26.40;41.30;;;;;;5149824;27;45421;-70
2023/07/24 02:03:18;;;;;;;5.43;3.95;;;26.40;41.30;;;;;;5149362;27;46460;-70
2023/07/24 02:05:50;;;;;;;6.30;4.03;;;26.40;41.30;;;;;;5149168;27;45326;-71
2023/07/24 02:08:17;;;;;;;4.32;3.90;;;26.40;41.30;;;;;;5149590;27;45241;-70
2023/07/24 02:10:44;;;;;;;5.53;3.85;;;26.40;42.00;;;;;;5149437;27;45252;-70
2023/07/24 02:13:11;;;;;;;6.75;3.90;;;26.40;41.30;;;;;;5149313;27;46413;-70
2023/07/24 02:15:37;;;;;;;4.97;3.70;;;26.40;42.00;;;;;;5149173;27;45408;-70
2023/07/24 02:18:06;;;;;;;5.38;3.95;;;26.40;41.40;;;;;;5149327;27;45327;-70
2023/07/24 02:20:32;;;;;;;5.10;3.97;;;26.40;41.40;;;;;;5149414;27;45386;-70
2023/07/24 02:22:59;;;;;;;5.57;3.85;;;26.40;41.40;;;;;;5149131;27;45394;-70
2023/07/24 02:25:26;;;;;;;4.43;3.67;;;26.40;41.40;;;;;;5148773;27;45385;-70
2023/07/24 02:27:53;;;;;;;5.78;3.53;;;26.40;41.40;;;;;;5148878;27;45350;-70
2023/07/24 02:30:20;;;;;;;5.15;3.85;;;26.30;41.40;;;;;;5149424;27;45378;-70
2023/07/24 02:32:46;;;;;;;5.55;3.75;;;26.30;41.40;;;;;;5148869;27;46399;-70
2023/07/24 02:35:15;;;;;;;4.65;3.38;;;26.30;41.40;;;;;;5148724;27;45258;-70
2023/07/24 02:37:41;;;;;;;4.80;3.47;;;26.30;41.50;;;;;;5146314;27;45350;-69
2023/07/24 02:40:09;;;;;;;5.05;3.72;;;26.30;41.50;;;;;;5148245;27;45416;-69
2023/07/24 02:42:36;;;;;;;5.53;3.80;;;26.30;41.50;;;;;;5148499;27;45378;-70
2023/07/24 02:45:03;;;;;;;5.07;3.63;;;26.30;41.50;;;;;;5148606;27;45401;-70
2023/07/24 02:47:30;;;;;;;4.85;3.90;;;26.30;41.60;;;;;;5148966;27;45341;-70
2023/07/24 02:49:57;;;;;;;5.40;3.78;;;26.30;41.60;;;;;;5149026;27;45306;-70
2023/07/24 02:52:25;;;;;;;5.15;3.72;;;26.20;41.60;;;;;;5148238;27;46376;-70
2023/07/24 02:54:52;;;;;;;6.00;4.15;;;26.20;41.50;;;;;;5148591;27;45470;-70
2023/07/24 02:57:19;;;;;;;6.28;3.88;;;26.20;41.50;;;;;;5148539;27;45314;-70
2023/07/24 02:59:46;;;;;;;5.07;3.53;;;26.20;41.50;;;;;;5148801;27;45404;-70
2023/07/24 03:02:14;;;;;;;4.32;3.47;;;26.20;41.60;;;;;;5148458;27;45486;-70
2023/07/24 03:04:41;;;;;;;6.30;3.85;;;26.20;41.60;;;;;;5148020;27;45433;-70
2023/07/24 03:07:07;;;;;;;5.68;4.05;;;26.20;41.60;;;;;;5148579;27;45336;-71
2023/07/24 03:09:36;;;;;;;4.15;3.38;;;26.20;41.60;;;;;;5148573;27;45486;-70
2023/07/24 03:12:02;;;;;;;4.32;3.85;;;26.20;41.60;;;;;;5148106;27;47310;-70
2023/07/24 03:14:29;;;;;;;6.00;4.07;;;26.20;41.60;;;;;;5148359;27;45410;-70
2023/07/24 03:16:56;;;;;;;5.38;4.18;;;26.20;41.50;;;;;;5148403;27;45470;-69
2023/07/24 03:19:23;;;;;;;5.13;3.80;;;26.10;41.50;;;;;;5148396;27;45484;-70
2023/07/24 03:21:50;;;;;;;4.78;3.75;;;26.10;41.50;;;;;;5148126;27;46391;-70
2023/07/24 03:24:17;;;;;;;6.15;4.03;;;26.10;41.50;;;;;;5147246;27;45300;-69
2023/07/24 03:26:45;;;;;;;6.18;3.80;;;26.10;41.50;;;;;;5148024;27;45312;-70
2023/07/24 03:29:12;;;;;;;4.78;3.40;;;26.10;41.50;;;;;;5148421;27;45436;-70
2023/07/24 03:31:39;;;;;;;6.47;4.22;;;26.10;41.50;;;;;;5148170;27;45496;-70
2023/07/24 03:34:11;;;;;;;5.43;3.58;;;26.10;41.50;;;;;;5147652;27;45276;-70
2023/07/24 03:36:41;;;;;;;6.10;4.32;;;26.10;41.50;;;;;;5148075;27;45350;-71
2023/07/24 03:39:08;;;;;;;5.13;3.80;;;26.10;41.50;;;;;;5148522;27;45276;-70
2023/07/24 03:41:34;;;;;;;4.47;3.45;;;26.10;41.50;;;;;;5150579;27;45529;-70
2023/07/24 03:44:02;;;;;;;5.05;3.67;;;26.10;41.50;;;;;;5151393;27;45336;-70
2023/07/24 03:46:29;;;;;;;4.93;3.55;;;26.00;41.50;;;;;;5151837;27;45286;-70
2023/07/24 03:48:56;;;;;;;5.45;4.10;;;26.00;41.50;;;;;;5151687;27;45358;-70
2023/07/24 03:51:23;;;;;;;4.82;3.42;;;26.00;41.60;;;;;;5151397;27;45646;-70
2023/07/24 03:53:50;;;;;;;6.30;4.15;;;26.00;42.20;;;;;;5151125;27;45364;-70
2023/07/24 03:56:17;;;;;;;4.78;3.83;;;26.00;41.60;;;;;;5151529;27;45441;-70
2023/07/24 03:58:43;;;;;;;6.18;3.70;;;26.00;41.60;;;;;;5151955;27;45410;-70
2023/07/24 04:01:12;;;;;;;5.65;3.70;;;26.00;41.70;;;;;;5152251;27;45331;-70
2023/07/24 04:03:39;;;;;;;7.38;4.25;;;26.00;41.70;;;;;;5151657;27;45345;-71
2023/07/24 04:06:05;;;;;;;5.28;3.63;;;26.00;41.70;;;;;;5151584;27;45393;-70
2023/07/24 04:08:32;;;;;;;4.82;3.63;;;26.00;41.70;;;;;;5151480;27;45498;-70
2023/07/24 04:10:59;;;;;;;6.38;4.18;;;26.00;41.80;;;;;;5150898;27;46660;-70
2023/07/24 04:13:26;;;;;;;6.18;4.05;;;26.00;41.80;;;;;;5151084;27;45310;-70
2023/07/24 04:15:53;;;;;;;5.30;4.03;;;26.00;41.80;;;;;;5151377;27;45433;-70
2023/07/24 04:18:21;;;;;;;5.18;3.40;;;26.00;41.90;;;;;;5151617;27;45446;-70
2023/07/24 04:20:48;;;;;;;3.97;3.33;;;26.00;41.90;;;;;;5151335;27;46456;-70
2023/07/24 04:23:14;;;;;;;5.38;3.83;;;25.90;41.90;;;;;;5151245;27;45322;-70
2023/07/24 04:25:41;;;;;;;4.35;3.05;;;25.90;42.00;;;;;;5151369;27;45409;-70
2023/07/24 04:28:08;;;;;;;5.53;3.55;;;25.90;42.00;;;;;;5151569;27;45240;-71
2023/07/24 04:30:35;;;;;;;5.88;4.22;;;25.90;42.00;;;;;;5151012;27;45393;-70
2023/07/24 04:33:02;;;;;;;5.35;3.80;;;25.90;42.00;;;;;;5151271;27;45382;-71
2023/07/24 04:35:30;;;;;;;5.80;3.80;;;25.90;42.00;;;;;;5151310;27;45477;-70
2023/07/24 04:37:57;;;;;;;4.50;3.47;;;25.90;42.00;;;;;;5151248;27;45253;-70
2023/07/24 04:40:24;;;;;;;5.55;3.80;;;25.90;42.10;;;;;;5150540;27;46881;-70
2023/07/24 04:42:51;;;;;;;4.90;3.75;;;25.90;42.10;;;;;;5150683;27;45301;-70
2023/07/24 04:45:18;;;;;;;5.53;3.70;;;25.90;42.10;;;;;;5150833;27;45395;-71
2023/07/24 04:47:45;;;;;;;5.72;3.85;;;25.90;42.10;;;;;;5151034;27;45395;-70
2023/07/24 04:50:11;;;;;;;4.80;3.60;;;25.90;42.10;;;;;;5150582;27;45476;-70
2023/07/24 04:52:40;;;;;;;5.00;3.40;;;25.90;42.00;;;;;;5150257;27;45417;-70
2023/07/24 04:55:07;;;;;;;5.28;3.65;;;25.80;42.00;;;;;;5147464;27;45384;-70
2023/07/24 04:57:34;;;;;;;5.13;3.50;;;25.80;42.00;;;;;;5150466;27;45393;-71
2023/07/24 05:00:01;;;;;;;4.65;3.88;;;25.80;42.00;;;;;;5150535;27;46415;-71
2023/07/24 05:02:28;;;;;;;4.32;3.50;;;25.80;42.00;;;;;;5150793;27;45328;-71
2023/07/24 05:04:54;;;;;;;5.43;3.85;;;25.80;42.10;;;;;;5150433;27;45281;-71
2023/07/24 05:07:21;;;;;;;5.15;3.90;;;25.80;42.10;;;;;;5150964;27;45377;-71
2023/07/24 05:09:49;;;;;;;6.05;3.42;;;25.80;42.20;;;;;;5150562;27;45432;-71
2023/07/24 05:12:16;;;;;;;4.68;3.63;;;25.80;42.10;;;;;;5150605;27;45368;-71
2023/07/24 05:14:43;;;;;;;4.50;3.50;;;25.80;42.10;;;;;;5150291;27;45325;-71
2023/07/24 05:17:10;;;;;;;5.18;3.97;;;25.80;42.10;;;;;;5150697;27;45311;-71
2023/07/24 05:19:37;;;;;;;6.85;3.97;;;25.80;42.00;;;;;;5150242;27;45357;-71
2023/07/24 05:22:04;;;;;;;5.22;3.38;;;25.80;41.90;;;;;;5150424;27;45319;-71
2023/07/24 05:24:31;;;;;;;5.07;3.40;;;25.80;41.90;;;;;;5149885;27;45329;-71
2023/07/24 05:26:59;;;;;;;5.55;3.90;;;25.80;41.90;;;;;;5150315;27;45458;-71
2023/07/24 05:29:25;;;;;;;5.22;3.13;;;25.70;41.80;;;;;;5150274;27;45396;-71
2023/07/24 05:31:52;;;;;;;4.50;3.38;;;25.80;41.90;;;;;;5150139;27;45330;-71
2023/07/24 05:34:19;;;;;;;5.28;3.58;;;25.80;41.90;;;;;;5150059;27;45314;-70
2023/07/24 05:36:46;;;;;;;3.65;2.70;;;25.80;41.80;;;;;;5150266;27;45470;-71
2023/07/24 05:39:13;;;;;;;4.65;3.70;;;25.80;41.80;;;;;;5149614;27;45487;-69
2023/07/24 05:41:39;;;;;;;5.05;3.55;;;25.80;41.80;;;;;;5149184;27;45256;-71
2023/07/24 05:44:08;;;;;;;4.95;3.45;;;25.80;41.80;;;;;;5149770;27;45332;-70
2023/07/24 05:46:34;;;;;;;6.20;3.50;;;25.80;41.80;;;;;;5149896;27;45426;-71
2023/07/24 05:49:01;;;;;;;4.70;3.60;;;25.80;41.80;;;;;;5149904;27;46536;-71
2023/07/24 05:51:28;;;;;;;4.40;3.60;;;25.80;41.80;;;;;;5149853;27;45295;-71
2023/07/24 05:53:55;;;;;;;3.72;3.17;;;25.80;41.80;;;;;;5149393;27;45337;-70
2023/07/24 05:56:22;;;;;;;5.90;3.17;;;25.80;41.80;;;;;;5150031;27;45365;-70
2023/07/24 05:58:48;;;;;;;5.25;3.75;;;25.80;41.80;;;;;;5149591;27;45437;-71
2023/07/24 06:01:17;;;;;;;6.28;3.83;;;25.80;41.70;;;;;;5149931;27;45404;-70
2023/07/24 06:03:44;;;;;;;4.35;3.20;;;25.80;41.70;;;;;;5148989;27;45416;-70
2023/07/24 06:06:10;;;;;;;4.93;3.22;;;25.80;41.60;;;;;;5149812;27;45248;-71
2023/07/24 06:08:37;;;;;;;5.63;3.22;;;25.80;41.60;;;;;;5149389;27;45403;-70
2023/07/24 06:11:04;;;;;;;4.15;3.10;;;25.80;41.60;;;;;;5149319;27;45326;-71
2023/07/24 06:13:31;;;;;;;3.58;3.17;;;25.80;41.60;;;;;;5149544;27;45244;-71
2023/07/24 06:15:57;;;;;;;4.53;3.17;;;25.80;41.60;;;;;;5149521;27;45313;-70
2023/07/24 06:18:26;;;;;;;3.88;3.03;;;25.80;41.50;;;;;;5149551;27;46400;-71
2023/07/24 06:20:53;;;;;;;4.32;3.13;;;25.90;41.50;;;;;;5149300;27;45291;-69
2023/07/24 06:23:20;;;;;;;3.45;2.92;;;25.90;41.50;;;;;;5149628;27;44859;-70
2023/07/24 06:25:47;;;;;;;4.80;3.15;;;25.90;41.50;;;;;;5148586;27;45171;-70
2023/07/24 06:28:14;;;;;;;4.60;3.13;;;25.90;41.40;;;;;;5148999;27;46347;-70
2023/07/24 06:30:40;;;;;;;3.65;2.97;;;25.90;41.40;;;;;;5148870;27;45264;-70
2023/07/24 06:33:07;;;;;;;4.82;2.88;;;25.90;41.40;;;;;;5149563;27;45415;-71
2023/07/24 06:35:36;;;;;;;4.60;3.20;;;25.90;41.40;;;;;;5149424;27;45387;-70
2023/07/24 06:38:03;;;;;;;4.47;3.30;;;25.90;41.40;;;;;;5148910;27;46297;-70
2023/07/24 06:40:29;;;;;;;3.78;2.90;;;25.90;41.40;;;;;;5149067;27;45309;-70
2023/07/24 06:42:56;;;;;;;4.75;3.17;;;25.90;41.60;;;;;;5149233;27;45364;-71
2023/07/24 06:45:23;;;;;;;5.28;3.17;;;25.90;41.50;;;;;;5148870;27;45454;-71
2023/07/24 06:47:50;;;;;;;3.95;2.85;;;25.90;41.50;;;;;;5148666;27;45366;-72
2023/07/24 06:50:17;;;;;;;4.20;3.00;;;25.90;41.50;;;;;;5148661;27;45331;-71
2023/07/24 06:52:45;;;;;;;4.20;3.42;;;25.90;41.50;;;;;;5148142;27;45503;-71
2023/07/24 06:55:11;;;;;;;4.80;3.50;;;25.80;41.50;;;;;;5148748;27;45538;-71
2023/07/24 06:57:38;;;;;;;4.40;2.88;;;25.80;41.40;;;;;;5148709;27;45393;-71
2023/07/24 07:00:08;;;;;;;3.97;3.05;;;25.80;41.40;;;;;;5148578;27;45395;-71
2023/07/24 07:02:35;;;;;;;5.53;2.90;;;25.80;41.40;;;;;;5148543;27;45391;-71
2023/07/24 07:05:02;;;;;;;4.05;3.15;;;25.80;41.50;;;;;;5148741;27;45418;-70
2023/07/24 07:07:29;;;;;;;4.53;3.10;;;25.90;42.10;;;;;;5148400;27;45363;-70
2023/07/24 07:09:57;;;;;;;3.75;2.80;;;25.80;41.40;;;;;;5147456;27;45654;-70
2023/07/24 07:12:24;;;;;;;4.80;2.92;;;25.90;41.40;;;;;;5148558;27;45289;-70
2023/07/24 07:14:51;;;;;;;3.47;2.83;;;25.90;41.40;;;;;;5147431;27;45259;-70
2023/07/24 07:17:18;;;;;;;4.18;2.95;;;25.90;41.40;;;;;;5148359;27;47667;-70
2023/07/24 07:19:44;;;;;;;3.47;2.72;;;26.00;41.40;;;;;;5148374;27;45351;-70
2023/07/24 07:22:11;;;;;;;3.10;2.65;;;26.00;41.40;;;;;;5148389;27;45275;-70
2023/07/24 07:24:38;;;;;;;4.03;3.20;;;26.00;41.40;;;;;;5148590;27;45405;-70
2023/07/24 07:27:07;;;;;;;4.10;2.72;;;26.00;41.40;;;;;;5148248;27;45314;-70
2023/07/24 07:29:34;;;;;;;3.85;2.90;;;26.00;41.50;;;;;;5148116;27;45418;-70
2023/07/24 07:32:01;;;;;;;4.25;3.25;;;25.90;41.50;;;;;;5148185;27;45335;-70
2023/07/24 07:34:27;;;;;;;3.45;2.85;;;25.90;41.60;;;;;;5148468;27;45402;-71
2023/07/24 07:36:54;;;;;;;3.67;2.97;;;25.90;41.60;;;;;;5148706;27;47238;-70
2023/07/24 07:39:21;;;;;;;4.82;3.15;;;25.90;41.60;;;;;;5149166;27;45192;-71
2023/07/24 07:41:48;;;;;;;5.00;3.38;;;25.90;41.70;;;;;;5148007;27;45357;-70
2023/07/24 07:44:16;;;;;;;3.50;3.08;;;25.90;41.70;;;;;;5149278;27;45362;-71
2023/07/24 07:46:42;;;;;;;3.42;2.97;;;25.90;41.80;;;;;;5127078;27;47058;-71
2023/07/24 07:49:09;;;;;;;5.15;3.33;;;25.90;41.90;;;;;;5127307;27;45334;-71
2023/07/24 07:51:35;;;;;;;6.85;3.20;;;25.90;41.90;;;;;;5127131;27;45311;-71
2023/07/24 07:54:02;;;;;;;4.47;2.95;;;25.90;42.00;;;;;;5137497;27;45394;-71
2023/07/24 07:56:29;;;;;;;6.80;3.55;;;25.90;42.00;;;;;;5147712;27;45461;-71
2023/07/24 07:58:56;;;;;;;4.65;3.42;;;25.90;42.70;;;;;;5147623;27;45580;-68
2023/07/24 08:01:24;;;;;;;4.15;3.33;;;25.80;45.30;;;;;;5149072;27;45256;-73
2023/07/24 08:03:51;;;;;;;6.15;3.22;;;25.80;46.30;;;;;;5150254;27;45260;-72
2023/07/24 08:06:18;;;;;;;9.10;3.05;;;25.80;43.50;;;;;;5150597;27;45319;-74
2023/07/24 08:08:45;;;;;;;11.38;3.47;;;25.90;43.30;;;;;;5149906;27;45441;-70
2023/07/24 08:11:11;;;;;;;9.35;2.90;;;26.00;43.30;;;;;;5147027;27;45347;-71
2023/07/24 08:13:38;;;;;;;4.70;2.72;;;26.00;43.80;;;;;;5149951;27;45267;-70
2023/07/24 08:16:06;;;;;;;3.78;2.97;;;26.10;45.20;;;;;;5149087;27;47343;-72
2023/07/24 08:18:34;;;;;;;5.28;3.17;;;26.10;45.50;;;;;;5148817;27;45407;-71
2023/07/24 08:21:01;;;;;;;11.30;3.30;;;26.10;47.90;;;;;;5148656;27;45406;-73
2023/07/24 08:23:28;;;;;;;5.13;2.90;;;26.20;47.90;;;;;;5149013;27;45359;-75
2023/07/24 08:25:54;;;;;;;6.15;3.40;;;26.30;47.80;;;;;;5148360;27;45336;-72
2023/07/24 08:28:21;;;;;;;9.93;3.22;;;26.40;48.30;;;;;;5151615;27;45318;-73
2023/07/24 08:30:58;;;;;;;8.32;3.40;;;26.40;48.90;;;;;;5153251;27;45265;-74
2023/07/24 08:33:25;;;;;;;8.40;3.17;;;26.50;49.10;;;;;;5151133;27;45543;-69
2023/07/24 08:36:01;;;;;;;3.85;3.25;;;26.50;49.30;;;;;;5151078;27;46405;-71
2023/07/24 08:38:28;;;;;;;4.97;3.30;;;26.50;50.00;;;;;;5151981;27;45307;-73
2023/07/24 08:41:02;;;;;;;5.05;3.30;;;26.50;50.00;;;;;;5150409;27;45282;-73
2023/07/24 08:43:34;;;;;;;9.88;3.70;;;26.60;49.80;;;;;;5150620;27;45394;-73
2023/07/24 08:46:01;;;;;;;8.85;3.67;;;26.70;49.80;;;;;;5148221;27;46529;-72
2023/07/24 08:48:31;;;;;;;4.03;3.08;;;26.80;50.10;;;;;;5152671;27;45275;-70
2023/07/24 08:50:58;;;;;;;7.93;3.97;;;26.80;50.00;;;;;;5151752;27;45418;-70
2023/07/24 08:53:26;;;;;;;7.25;3.72;;;26.80;50.10;;;;;;5151598;27;45401;-70
2023/07/24 08:55:53;;;;;;;7.32;3.45;;;26.80;50.30;;;;;;5150136;27;46643;-69
2023/07/24 08:58:25;;;;;;;3.78;3.10;;;26.80;51.10;;;;;;5150482;27;45313;-71
2023/07/24 09:00:52;;;;;;;9.02;3.65;;;26.70;51.10;;;;;;5147787;27;45214;-70
2023/07/24 09:03:19;;;;;;;12.05;4.15;;;26.70;51.90;;;;;;5150219;27;45421;-70
2023/07/24 09:05:46;;;;;;;8.57;3.83;;;26.60;52.60;;;;;;5149545;27;46710;-70
2023/07/24 09:08:13;;;;;;;6.63;3.58;;;26.60;53.20;;;;;;5150264;27;45372;-70
2023/07/24 09:10:41;;;;;;;8.98;3.47;;;26.60;53.70;;;;;;5150213;27;45361;-70
2023/07/24 09:13:08;;;;;;;5.90;3.72;;;26.50;53.90;;;;;;5150623;27;45511;-70
2023/07/24 09:15:42;;;;;;;7.22;3.38;;;26.50;54.20;;;;;;5150018;27;45321;-70
2023/07/24 09:18:08;;;;;;;5.10;3.67;;;26.50;54.30;;;;;;5150185;27;45299;-72
2023/07/24 09:20:39;;;;;;;9.07;3.70;;;26.40;54.40;;;;;;5149994;27;45307;-71
2023/07/24 09:23:06;;;;;;;12.35;4.72;;;26.40;54.40;;;;;;5149412;27;45366;-71
2023/07/24 09:25:33;;;;;;;8.25;3.58;;;26.30;55.20;;;;;;5148437;27;45394;-71
2023/07/24 09:28:01;;;;;;;10.70;3.70;;;26.20;55.80;;;;;;5146651;27;45366;-72
2023/07/24 09:30:28;;;;;;;10.30;3.47;;;26.10;56.20;;;;;;5149199;27;45391;-71
2023/07/24 09:32:55;;;;;;;6.15;3.55;;;26.00;56.50;;;;;;5149970;27;45354;-71
2023/07/24 09:35:26;;;;;;;8.32;3.28;;;25.90;56.30;;;;;;5148915;27;46373;-70
2023/07/24 09:38:02;;;;;;;6.50;3.30;;;25.80;56.60;;;;;;5148242;27;45515;-70
2023/07/24 09:40:28;;;;;;;7.03;3.20;;;25.80;56.40;;;;;;5149003;27;45396;-68
2023/07/24 09:42:55;;;;;;;6.38;3.20;;;25.70;56.80;;;;;;5148950;27;45316;-70
2023/07/24 09:45:23;;;;;;;3.97;2.45;;;25.70;57.30;;;;;;5148923;27;46388;-69
2023/07/24 09:47:50;;;;;;;6.78;2.70;;;25.70;57.10;;;;;;5149767;27;45264;-72
2023/07/24 09:50:17;;;;;;;5.40;2.30;;;25.70;56.90;;;;;;5150113;27;45460;-72
2023/07/24 09:52:44;;;;;;;3.50;2.30;;;25.70;56.40;;;;;;5149344;27;45376;-71
2023/07/24 09:55:12;;;;;;;2.53;1.80;;;25.70;56.40;;;;;;5148144;27;47604;-70
2023/07/24 09:57:39;;;;;;;3.70;1.90;;;25.70;56.50;;;;;;5142399;27;46363;-71
2023/07/24 10:00:07;;;;;;;7.10;1.98;;;25.70;56.70;;;;;;5147861;27;45431;-71
2023/07/24 10:02:35;;;;;;;4.28;1.98;;;25.70;56.60;;;;;;5148934;27;45384;-71
2023/07/24 10:05:02;;;;;;;6.07;2.20;;;25.70;56.50;;;;;;5148899;27;45448;-71
2023/07/24 10:07:29;;;;;;;5.43;2.10;;;25.70;56.10;;;;;;5148998;27;45358;-71
2023/07/24 10:09:56;;;;;;;4.65;2.22;;;25.70;55.70;;;;;;5148585;27;45290;-71
2023/07/24 10:12:23;;;;;;;5.10;2.10;;;25.80;55.50;;;;;;5148773;27;45489;-71
2023/07/24 10:14:49;;;;;;;3.78;2.42;;;25.80;55.10;;;;;;5147870;27;45462;-70
2023/07/24 10:17:38;;;;;;;2.20;1.73;;;25.80;54.90;;;;;;5148771;27;45380;-71
2023/07/24 10:20:06;;;;;;;3.78;2.22;;;25.80;54.90;;;;;;5148738;27;45272;-72
2023/07/24 10:22:33;;;;;;;2.88;1.85;;;25.80;54.50;;;;;;5148819;27;45461;-71
2023/07/24 10:25:00;;;;;;;5.03;2.17;;;25.80;54.40;;;;;;5131417;27;46423;-71
2023/07/24 10:27:28;;;;;;;3.08;2.13;;;25.80;54.30;;;;;;5147860;27;45469;-71
2023/07/24 10:30:01;;;;;;;2.30;1.90;;;25.80;54.10;;;;;;5147816;27;45349;-71
2023/07/24 10:32:28;;;;;;;2.08;1.70;;;25.80;54.00;;;;;;5149046;27;45341;-71
2023/07/24 10:35:00;;;;;;;1.98;1.77;;;25.90;53.70;;;;;;5148050;27;45250;-71
2023/07/24 10:37:34;;;;;;;4.82;2.20;;;26.00;53.60;;;;;;5148028;27;45351;-70
2023/07/24 10:40:03;;;;;;;3.50;1.80;;;26.00;53.50;;;;;;5148439;27;45395;-71
2023/07/24 10:42:30;;;;;;;5.25;1.88;;;26.00;53.20;;;;;;5148907;27;45729;-71
2023/07/24 10:45:04;;;;;;;3.75;1.75;;;26.00;53.10;;;;;;5148460;27;46693;-70
2023/07/24 10:47:31;;;;;;;3.15;1.55;;;26.10;52.90;;;;;;5148230;27;45251;-70
2023/07/24 10:50:01;;;;;;;2.67;1.83;;;26.10;53.20;;;;;;5148704;27;45457;-71
2023/07/24 10:52:31;;;;;;;4.93;2.25;;;26.20;53.30;;;;;;5148689;27;45441;-71
2023/07/24 10:54:58;;;;;;;3.17;1.80;;;26.20;52.90;;;;;;5148842;27;45291;-71
2023/07/24 10:57:27;;;;;;;3.97;2.08;;;26.20;52.90;;;;;;5148340;27;45313;-71
2023/07/24 10:59:54;;;;;;;3.00;2.35;;;26.30;53.30;;;;;;5148962;27;45256;-71
2023/07/24 11:02:21;;;;;;;2.50;1.77;;;26.30;53.10;;;;;;5149140;27;45445;-71
2023/07/24 11:04:48;;;;;;;2.15;1.80;;;26.40;52.30;;;;;;5148560;27;45509;-71
2023/07/24 11:07:16;;;;;;;6.03;2.33;;;26.40;51.80;;;;;;5149114;27;45390;-72
2023/07/24 11:09:43;;;;;;;3.13;1.70;;;26.40;52.40;;;;;;5149388;27;45402;-74
2023/07/24 11:12:12;;;;;;;3.75;1.70;;;26.40;52.00;;;;;;5151617;27;45290;-72
2023/07/24 11:14:48;;;;;;;12.75;2.03;;;26.50;52.20;;;;;;5150807;27;46630;-76
2023/07/24 11:17:15;;;;;;;3.83;1.90;;;26.50;53.20;;;;;;5150250;27;45475;-75
2023/07/24 11:19:41;;;;;;;10.52;2.83;;;26.60;53.40;;;;;;5145911;27;45499;-78
2023/07/24 11:22:08;;;;;;;5.50;3.60;;;26.70;53.40;;;;;;5146836;27;45328;-73
2023/07/24 11:24:43;;;;;;;5.60;2.67;;;26.90;53.20;;;;;;5147443;27;45486;-74
2023/07/24 11:27:13;;;;;;;5.13;2.70;;;26.90;53.50;;;;;;5149726;27;45697;-73
2023/07/24 11:29:40;;;;;;;10.02;2.72;;;27.00;53.20;;;;;;5148967;27;45377;-72
2023/07/24 11:32:07;;;;;;;6.82;2.75;;;27.10;52.80;;;;;;5148136;27;45467;-69
2023/07/24 11:34:34;;;;;;;3.47;2.00;;;27.00;52.30;;;;;;5145098;27;45586;-68
2023/07/24 11:37:01;;;;;;;3.03;1.85;;;26.80;52.10;;;;;;5143220;27;45399;-69
2023/07/24 11:39:27;;;;;;;2.33;1.92;;;26.60;52.30;;;;;;5147560;27;45247;-69
2023/07/24 11:41:56;;;;;;;1.90;1.80;;;26.50;52.40;;;;;;5145197;27;45464;-69
2023/07/24 11:44:26;;;;;;;1.73;1.60;;;26.40;52.60;;;;;;5144442;27;46451;-68
2023/07/24 11:46:56;;;;;;;3.65;1.92;;;26.20;53.00;;;;;;5143755;27;45372;-72
2023/07/24 11:49:23;;;;;;;4.07;2.00;;;26.20;53.20;;;;;;5147410;27;45355;-71
2023/07/24 11:51:51;;;;;;;2.65;1.90;;;26.20;54.00;;;;;;5147474;27;45362;-72
2023/07/24 11:54:18;;;;;;;2.80;1.98;;;26.20;53.40;;;;;;5146958;27;45402;-71
2023/07/24 11:56:44;;;;;;;2.03;1.83;;;26.10;54.20;;;;;;5145867;27;45449;-70
2023/07/24 11:59:13;;;;;;;2.00;1.75;;;26.10;53.10;;;;;;5147281;27;45388;-71
2023/07/24 12:01:40;;;;;;;3.25;1.70;;;26.10;52.90;;;;;;5149162;27;45314;-71
2023/07/24 12:04:07;;;;;;;3.10;2.08;;;26.10;52.80;;;;;;5150735;27;45742;-71
2023/07/24 12:06:33;;;;;;;2.10;1.80;;;26.10;52.80;;;;;;5151257;27;45478;-70
2023/07/24 12:09:05;;;;;;;4.25;2.15;;;26.10;52.60;;;;;;5151983;27;45368;-71
2023/07/24 12:11:32;;;;;;;3.47;2.08;;;26.00;52.70;;;;;;5151760;27;45382;-72
2023/07/24 12:13:59;;;;;;;2.45;1.98;;;26.00;52.60;;;;;;5150526;27;46538;-71
2023/07/24 12:16:28;;;;;;;1.92;1.55;;;25.90;52.60;;;;;;5130638;27;45363;-71
2023/07/24 12:18:55;;;;;;;2.40;1.85;;;25.90;52.50;;;;;;5147400;27;45306;-71
2023/07/24 12:21:22;;;;;;;2.40;2.05;;;25.90;52.60;;;;;;5150756;27;45390;-71
2023/07/24 12:23:49;;;;;;;4.78;2.20;;;25.80;52.60;;;;;;5149831;27;45336;-70
2023/07/24 12:26:16;;;;;;;4.72;1.90;;;25.80;53.00;;;;;;5149995;27;45338;-71
2023/07/24 12:28:43;;;;;;;4.45;2.10;;;25.80;53.20;;;;;;5150616;27;45399;-71
2023/07/24 12:31:09;;;;;;;2.55;1.70;;;25.80;52.30;;;;;;5154109;27;45304;-71
2023/07/24 12:33:38;;;;;;;2.67;1.83;;;25.80;52.40;;;;;;5150819;27;46347;-71
2023/07/24 12:36:05;;;;;;;2.90;2.10;;;25.90;52.40;;;;;;5150636;27;45465;-71
2023/07/24 12:38:32;;;;;;;1.95;1.73;;;25.90;52.50;;;;;;5150624;27;45350;-71
2023/07/24 12:40:59;;;;;;;2.65;2.15;;;25.90;52.70;;;;;;5150443;27;45595;-71
2023/07/24 12:43:26;;;;;;;2.08;1.88;;;25.90;52.40;;;;;;5150215;27;47521;-71
2023/07/24 12:45:52;;;;;;;2.92;2.00;;;25.80;52.30;;;;;;5152818;27;45253;-71